createdAt,value
2019-02-25T00:00:53.777Z,45.50
2019-02-25T00:04:03.064Z,45.50
2019-02-25T00:07:10.622Z,48.47
2019-02-25T00:10:18.307Z,44.50
2019-02-25T00:13:25.925Z,44.27
2019-02-25T00:16:33.565Z,44.63
2019-02-25T00:19:41.261Z,45.87
2019-02-25T00:22:48.930Z,44.90
2019-02-25T00:25:56.592Z,43.33
2019-02-25T00:29:04.368Z,42.67
2019-02-25T00:32:11.891Z,42.00
2019-02-25T00:35:20.670Z,49.30
2019-02-25T00:38:28.361Z,40.57
2019-02-25T00:41:36.069Z,40.97
2019-02-25T00:44:43.725Z,37.70
2019-02-25T00:47:51.301Z,36.47
2019-02-25T00:50:59.940Z,37.67
2019-02-25T00:54:07.586Z,81.50
2019-02-25T00:57:16.067Z,84.53
2019-02-25T01:00:26.045Z,90.60
2019-02-25T01:03:33.699Z,90.97
2019-02-25T01:06:41.543Z,89.10
2019-02-25T01:09:49.141Z,87.10
2019-02-25T01:12:56.718Z,91.37
2019-02-25T01:16:04.523Z,92.23
2019-02-25T01:19:12.062Z,91.47
2019-02-25T01:22:19.613Z,88.83
2019-02-25T01:25:27.406Z,84.40
2019-02-25T01:28:36.318Z,84.80
2019-02-25T01:31:44.285Z,84.60
2019-02-25T01:34:51.861Z,80.63
2019-02-25T01:37:59.545Z,83.73
2019-02-25T01:41:07.264Z,81.07
2019-02-25T01:44:14.807Z,80.20
2019-02-25T01:47:22.893Z,88.10
2019-02-25T01:50:30.489Z,89.90
2019-02-25T01:53:38.267Z,73.60
2019-02-25T01:56:45.907Z,68.73
2019-02-25T01:59:53.587Z,68.67
2019-02-25T02:03:01.206Z,63.27
2019-02-25T02:06:09.869Z,64.40
2019-02-25T02:09:17.485Z,58.10
2019-02-25T02:12:25.170Z,58.63
2019-02-25T02:15:32.771Z,62.57
2019-02-25T02:18:40.441Z,57.83
2019-02-25T02:21:48.206Z,53.63
2019-02-25T02:24:55.871Z,49.77
2019-02-25T02:28:03.445Z,47.77
2019-02-25T02:31:11.008Z,41.97
2019-02-25T02:34:18.580Z,41.70
2019-02-25T02:37:26.224Z,44.43
2019-02-25T02:40:33.846Z,41.97
2019-02-25T02:43:41.489Z,36.87
2019-02-25T02:47:16.159Z,36.73
2019-02-25T02:50:25.492Z,32.73
2019-02-25T02:53:33.500Z,30.67
2019-02-25T02:56:41.071Z,30.17
2019-02-25T02:59:48.807Z,30.77
2019-02-25T03:02:56.424Z,35.00
2019-02-25T03:06:04.161Z,28.10
2019-02-25T03:09:12.225Z,27.13
2019-02-25T03:12:20.135Z,25.43
2019-02-25T03:15:27.963Z,24.73
2019-02-25T03:18:35.651Z,23.40
2019-02-25T03:21:43.585Z,23.40
2019-02-25T03:24:51.212Z,28.27
2019-02-25T03:27:58.853Z,25.07
2019-02-25T03:31:06.678Z,23.47
2019-02-25T03:34:14.338Z,23.50
2019-02-25T03:37:21.841Z,20.23
2019-02-25T03:40:29.551Z,20.90
2019-02-25T03:43:37.147Z,23.33
2019-02-25T03:46:44.825Z,25.90
2019-02-25T03:49:52.451Z,24.80
2019-02-25T03:53:00.021Z,29.83
2019-02-25T03:56:07.627Z,46.20
2019-02-25T03:59:15.169Z,42.07
2019-02-25T04:02:23.034Z,43.17
2019-02-25T04:05:30.889Z,42.87
2019-02-25T04:08:38.609Z,45.87
2019-02-25T04:11:46.501Z,43.00
2019-02-25T04:14:54.205Z,48.40
2019-02-25T04:18:02.305Z,45.23
2019-02-25T04:21:09.907Z,48.57
2019-02-25T04:24:17.450Z,46.03
2019-02-25T04:27:25.081Z,42.77
2019-02-25T04:30:32.743Z,37.30
2019-02-25T04:33:40.701Z,33.00
2019-02-25T04:36:48.337Z,30.90
2019-02-25T04:39:56.020Z,35.70
2019-02-25T04:43:03.545Z,37.80
2019-02-25T04:46:11.530Z,31.77
2019-02-25T04:49:20.203Z,29.43
2019-02-25T04:52:28.149Z,25.37
2019-02-25T04:55:35.847Z,26.20
2019-02-25T04:58:43.650Z,30.10
2019-02-25T05:01:51.774Z,37.80
2019-02-25T05:04:59.461Z,49.30
2019-02-25T05:08:07.049Z,48.40
2019-02-25T05:11:17.009Z,53.40
2019-02-25T05:14:24.650Z,57.03
2019-02-25T05:17:32.183Z,48.43
2019-02-25T05:20:39.964Z,48.13
2019-02-25T05:23:47.489Z,48.83
2019-02-25T05:26:56.231Z,52.30
2019-02-25T05:30:03.875Z,50.40
2019-02-25T05:33:12.540Z,52.50
2019-02-25T05:36:20.103Z,51.53
2019-02-25T05:39:27.780Z,48.07
2019-02-25T05:42:37.336Z,47.07
2019-02-25T05:45:44.963Z,44.57
2019-02-25T05:48:52.611Z,44.90
2019-02-25T05:52:00.265Z,42.60
2019-02-25T05:55:09.429Z,45.30
2019-02-25T05:58:17.128Z,43.97
2019-02-25T06:01:24.837Z,43.60
2019-02-25T06:04:32.403Z,40.30
2019-02-25T06:07:40.546Z,41.37
2019-02-25T06:10:48.268Z,38.00
2019-02-25T06:13:55.873Z,29.73
2019-02-25T06:17:03.420Z,30.93
2019-02-25T06:20:11.882Z,30.60
2019-02-25T06:23:19.477Z,25.70
2019-02-25T06:26:27.103Z,25.30
2019-02-25T06:29:34.653Z,26.60
2019-02-25T06:32:42.271Z,26.77
2019-02-25T06:35:50.940Z,28.50
2019-02-25T06:38:58.517Z,26.73
2019-02-25T06:42:06.150Z,23.93
2019-02-25T06:45:15.742Z,25.30
2019-02-25T06:48:23.302Z,25.10
2019-02-25T06:51:30.889Z,26.83
2019-02-25T06:54:38.481Z,21.63
2019-02-25T06:57:46.160Z,24.90
2019-02-25T07:00:54.132Z,22.67
2019-02-25T07:04:26.978Z,23.10
2019-02-25T07:07:52.242Z,23.77
2019-02-25T07:11:24.835Z,21.70
2019-02-25T07:14:47.512Z,20.73
2019-02-25T07:18:11.120Z,21.67
2019-02-25T07:21:40.821Z,22.63
2019-02-25T07:25:07.184Z,19.27
2019-02-25T07:28:32.623Z,24.23
2019-02-25T07:31:53.059Z,26.47
2019-02-25T07:35:08.392Z,26.53
2019-02-25T07:38:53.489Z,32.63
2019-02-25T07:42:18.931Z,29.80
2019-02-25T07:45:45.581Z,31.50
2019-02-25T07:49:03.710Z,35.60
2019-02-25T07:52:34.540Z,24.90
2019-02-25T07:56:10.034Z,29.60
2019-02-25T07:59:54.666Z,26.40
2019-02-25T08:03:15.749Z,25.67
2019-02-25T08:06:30.828Z,27.07
2019-02-25T08:09:46.375Z,39.50
2019-02-25T08:13:19.308Z,30.60
2019-02-25T08:16:44.791Z,22.10
2019-02-25T08:20:04.428Z,22.17
2019-02-25T08:23:30.874Z,27.97
2019-02-25T08:27:04.926Z,23.07
2019-02-25T08:30:24.250Z,28.07
2019-02-25T08:33:51.629Z,28.77
2019-02-25T08:38:04.531Z,33.80
2019-02-25T08:41:32.765Z,31.57
2019-02-25T08:44:55.176Z,29.00
2019-02-25T08:48:10.669Z,28.70
2019-02-25T08:51:18.324Z,28.30
2019-02-25T08:54:26.014Z,27.97
2019-02-25T08:57:33.652Z,29.70
2019-02-25T09:00:42.170Z,26.77
2019-02-25T09:03:49.914Z,27.57
2019-02-25T09:06:57.510Z,26.20
2019-02-25T09:10:06.120Z,26.03
2019-02-25T09:13:13.714Z,25.63
2019-02-25T09:16:21.292Z,25.97
2019-02-25T09:19:29.130Z,26.20
2019-02-25T09:22:36.729Z,24.47
2019-02-25T09:25:44.498Z,29.27
2019-02-25T09:28:52.690Z,26.17
2019-02-25T09:32:00.450Z,24.37
2019-02-25T09:35:08.708Z,25.63
2019-02-25T09:38:16.358Z,27.20
2019-02-25T09:41:30.029Z,26.20
2019-02-25T09:44:33.278Z,25.00
2019-02-25T09:47:40.916Z,29.20
2019-02-25T09:50:48.512Z,26.20
2019-02-25T09:53:56.139Z,33.20
2019-02-25T09:57:03.884Z,27.20
2019-02-25T10:00:14.822Z,35.13
2019-02-25T10:03:22.432Z,26.70
2019-02-25T10:06:30.044Z,27.50
2019-02-25T10:09:37.664Z,29.70
2019-02-25T10:12:45.354Z,30.70
2019-02-25T10:15:53.086Z,28.47
2019-02-25T10:19:00.639Z,30.77
2019-02-25T10:22:08.344Z,27.70
2019-02-25T10:25:15.947Z,25.90
2019-02-25T10:28:23.590Z,26.90
2019-02-25T10:31:31.290Z,28.73
2019-02-25T10:34:39.899Z,26.63
2019-02-25T10:37:48.219Z,26.33
2019-02-25T10:40:55.848Z,27.87
2019-02-25T10:44:04.822Z,28.13
2019-02-25T10:47:13.617Z,30.63
2019-02-25T10:50:22.362Z,28.93
2019-02-25T10:53:30.132Z,31.57
2019-02-25T10:56:59.908Z,29.07
2019-02-25T11:00:10.081Z,29.73
2019-02-25T11:03:20.027Z,29.47
2019-02-25T11:06:29.104Z,29.43
2019-02-25T11:09:48.340Z,29.43
2019-02-25T11:12:57.702Z,31.10
2019-02-25T11:16:06.015Z,27.30
2019-02-25T11:19:13.792Z,29.07
2019-02-25T11:22:21.533Z,35.10
2019-02-25T11:25:30.184Z,34.20
2019-02-25T11:28:39.171Z,28.90
2019-02-25T11:31:47.820Z,32.37
2019-02-25T11:34:56.428Z,27.50
2019-02-25T11:38:04.204Z,29.50
2019-02-25T11:41:11.852Z,28.50
2019-02-25T11:44:21.104Z,33.73
2019-02-25T11:47:28.669Z,30.93
2019-02-25T11:50:36.387Z,33.40
2019-02-25T11:53:44.018Z,29.60
2019-02-25T11:56:51.716Z,29.57
2019-02-25T11:59:59.812Z,29.27
2019-02-25T12:03:07.856Z,31.07
2019-02-25T12:06:15.430Z,32.80
2019-02-25T12:09:23.076Z,40.30
2019-02-25T12:12:30.631Z,33.17
2019-02-25T12:15:38.618Z,32.00
2019-02-25T12:18:46.223Z,31.90
2019-02-25T12:21:53.873Z,29.80
2019-02-25T12:25:01.436Z,28.70
2019-02-25T12:28:09.138Z,34.37
2019-02-25T12:31:18.439Z,34.37
2019-02-25T12:34:26.466Z,63.50
2019-02-25T12:37:34.622Z,30.33
2019-02-25T12:40:42.536Z,30.67
2019-02-25T12:43:50.151Z,29.17
2019-02-25T12:46:58.331Z,30.03
2019-02-25T12:50:07.441Z,42.00
2019-02-25T12:53:15.210Z,32.53
2019-02-25T12:56:23.723Z,27.03
2019-02-25T12:59:31.409Z,27.83
2019-02-25T13:02:39.404Z,29.50
2019-02-25T13:05:47.026Z,27.60
2019-02-25T13:08:55.188Z,34.60
2019-02-25T13:12:03.302Z,32.47
2019-02-25T13:15:13.891Z,55.30
2019-02-25T13:18:21.671Z,49.50
2019-02-25T13:21:29.459Z,34.90
2019-02-25T13:24:39.432Z,47.53
2019-02-25T13:27:47.199Z,33.90
2019-02-25T13:30:55.182Z,36.20
2019-02-25T13:34:03.090Z,27.20
2019-02-25T13:37:10.992Z,27.53
2019-02-25T13:40:20.025Z,39.40
2019-02-25T13:43:27.994Z,45.27
2019-02-25T13:46:35.677Z,58.47
2019-02-25T13:49:44.299Z,52.03
2019-02-25T13:52:52.570Z,60.20
2019-02-25T13:56:00.313Z,43.37
2019-02-25T13:59:08.865Z,34.13
2019-02-25T14:02:16.695Z,49.33
2019-02-25T14:05:24.737Z,33.27
2019-02-25T14:08:34.818Z,51.47
2019-02-25T14:11:42.279Z,34.00
2019-02-25T14:14:51.841Z,31.93
2019-02-25T14:17:59.854Z,37.10
2019-02-25T14:21:07.919Z,32.90
2019-02-25T14:24:16.129Z,41.17
2019-02-25T14:27:27.131Z,40.43
2019-02-25T14:30:35.223Z,35.37
2019-02-25T14:33:43.338Z,48.80
2019-02-25T14:36:52.463Z,47.83
2019-02-25T14:40:04.129Z,32.07
2019-02-25T14:43:14.828Z,35.40
2019-02-25T14:46:22.545Z,32.17
2019-02-25T14:49:32.456Z,32.50
2019-02-25T14:52:40.395Z,34.73
2019-02-25T14:55:50.337Z,28.80
2019-02-25T14:58:57.380Z,38.60
2019-02-25T15:02:06.302Z,33.33
2019-02-25T15:05:16.772Z,33.63
2019-02-25T15:08:25.790Z,35.60
2019-02-25T15:11:33.625Z,33.70
2019-02-25T15:14:42.295Z,36.50
2019-02-25T15:17:50.521Z,36.00
2019-02-25T15:21:00.649Z,37.07
2019-02-25T15:24:10.364Z,34.30
2019-02-25T15:27:20.099Z,39.50
2019-02-25T15:30:30.382Z,35.90
2019-02-25T15:33:37.984Z,42.53
2019-02-25T15:36:46.484Z,45.50
2019-02-25T15:39:55.915Z,45.97
2019-02-25T15:43:05.858Z,39.23
2019-02-25T15:46:16.642Z,42.80
2019-02-25T15:49:25.639Z,38.97
2019-02-25T15:52:39.843Z,38.93
2019-02-25T15:55:42.995Z,39.83
2019-02-25T15:58:52.300Z,39.13
2019-02-25T16:02:00.099Z,46.40
2019-02-25T16:05:09.940Z,48.53
2019-02-25T16:08:19.403Z,50.03
2019-02-25T16:11:27.354Z,48.20
2019-02-25T16:14:35.188Z,52.17
2019-02-25T16:17:44.584Z,48.77
2019-02-25T16:20:52.303Z,53.07
2019-02-25T16:24:02.049Z,52.70
2019-02-25T16:27:09.787Z,54.80
2019-02-25T16:30:19.088Z,57.70
2019-02-25T16:33:28.191Z,58.50
2019-02-25T16:36:36.405Z,59.70
2019-02-25T16:39:50.172Z,61.77
2019-02-25T16:42:59.745Z,56.67
2019-02-25T16:46:09.232Z,57.33
2019-02-25T16:49:16.894Z,54.53
2019-02-25T16:52:24.729Z,56.50
2019-02-25T16:55:32.721Z,61.43
2019-02-25T16:58:40.557Z,67.10
2019-02-25T17:01:48.231Z,64.33
2019-02-25T17:04:56.115Z,56.80
2019-02-25T17:08:05.572Z,56.60
2019-02-25T17:11:15.181Z,58.80
2019-02-25T17:14:23.980Z,48.70
2019-02-25T17:17:32.478Z,48.80
2019-02-25T17:20:40.922Z,46.93
2019-02-25T17:23:48.582Z,46.03
2019-02-25T17:26:56.147Z,47.43
2019-02-25T17:30:03.850Z,51.83
2019-02-25T17:33:14.830Z,50.77
2019-02-25T17:36:22.767Z,53.20
2019-02-25T17:39:32.891Z,49.97
2019-02-25T17:42:40.174Z,52.03
2019-02-25T17:45:47.923Z,47.90
2019-02-25T17:48:55.538Z,41.60
2019-02-25T17:52:03.217Z,43.77
2019-02-25T17:55:13.607Z,36.00
2019-02-25T17:58:21.951Z,44.73
2019-02-25T18:01:31.134Z,41.57
2019-02-25T18:04:39.967Z,46.57
2019-02-25T18:07:48.654Z,53.20
2019-02-25T18:10:59.255Z,54.73
2019-02-25T18:14:09.128Z,54.00
2019-02-25T18:17:19.197Z,61.43
2019-02-25T18:20:27.330Z,65.00
2019-02-25T18:23:36.327Z,52.73
2019-02-25T18:26:46.936Z,45.17
2019-02-25T18:29:59.587Z,48.20
2019-02-25T18:33:07.567Z,51.10
2019-02-25T18:36:16.462Z,50.40
2019-02-25T18:39:25.775Z,51.97
2019-02-25T18:42:36.478Z,77.73
2019-02-25T18:45:44.779Z,64.80
2019-02-25T18:48:52.548Z,63.80
2019-02-25T18:52:00.293Z,120.23
2019-02-25T18:55:09.520Z,61.20
2019-02-25T18:58:18.330Z,71.50
2019-02-25T19:01:26.726Z,64.60
2019-02-25T19:04:34.984Z,56.40
2019-02-25T19:07:43.707Z,50.50
2019-02-25T19:10:53.182Z,55.50
2019-02-25T19:14:03.145Z,55.97
2019-02-25T19:17:10.131Z,61.77
2019-02-25T19:20:17.967Z,57.53
2019-02-25T19:23:25.785Z,54.63
2019-02-25T19:26:33.532Z,63.60
2019-02-25T19:29:41.176Z,76.73
2019-02-25T19:32:49.297Z,67.07
2019-02-25T19:35:58.817Z,57.83
2019-02-25T19:39:11.941Z,60.17
2019-02-25T19:42:22.448Z,55.60
2019-02-25T19:45:29.742Z,56.77
2019-02-25T19:48:38.911Z,48.27
2019-02-25T19:51:48.403Z,49.40
2019-02-25T19:54:57.875Z,51.23
2019-02-25T19:58:05.722Z,52.08
2019-02-25T20:01:13.446Z,50.60
2019-02-25T20:04:21.502Z,47.83
2019-02-25T20:07:30.913Z,46.30
2019-02-25T20:10:38.674Z,46.17
2019-02-25T20:13:46.717Z,44.20
2019-02-25T20:16:54.778Z,45.30
2019-02-25T20:20:04.392Z,45.67
2019-02-25T20:23:11.891Z,44.63
2019-02-25T20:26:20.123Z,39.30
2019-02-25T20:29:29.273Z,42.40
2019-02-25T20:32:38.492Z,42.73
2019-02-25T20:35:51.051Z,40.57
2019-02-25T20:38:55.486Z,39.10
2019-02-25T20:42:04.091Z,40.17
2019-02-25T20:45:14.776Z,43.40
2019-02-25T20:48:22.529Z,42.90
2019-02-25T20:51:31.605Z,43.10
2019-02-25T20:54:41.619Z,43.50
2019-02-25T20:57:48.952Z,43.33
2019-02-25T21:00:56.625Z,43.90
2019-02-25T21:04:05.449Z,41.60
2019-02-25T21:07:13.313Z,43.70
2019-02-25T21:10:22.748Z,45.40
2019-02-25T21:13:33.415Z,42.43
2019-02-25T21:16:40.917Z,41.20
2019-02-25T21:19:48.586Z,39.87
2019-02-25T21:22:57.744Z,40.07
2019-02-25T21:26:07.448Z,36.47
2019-02-25T21:29:14.958Z,34.40
2019-02-25T21:32:24.105Z,36.33
2019-02-25T21:35:36.647Z,39.37
2019-02-25T21:38:40.947Z,36.80
2019-02-25T21:41:48.475Z,38.50
2019-02-25T21:44:57.024Z,40.50
2019-02-25T21:48:07.443Z,40.60
2019-02-25T21:51:14.791Z,39.10
2019-02-25T21:54:22.870Z,40.57
2019-02-25T21:57:31.400Z,42.60
2019-02-25T22:00:40.880Z,41.97
2019-02-25T22:03:50.477Z,42.63
2019-02-25T22:07:00.172Z,43.53
2019-02-25T22:10:09.206Z,44.03
2019-02-25T22:13:18.363Z,43.80
2019-02-25T22:16:27.861Z,39.67
2019-02-25T22:19:37.441Z,36.97
2019-02-25T22:22:45.251Z,37.63
2019-02-25T22:25:52.989Z,38.50
2019-02-25T22:29:01.828Z,35.20
2019-02-25T22:32:11.251Z,34.00
2019-02-25T22:35:19.064Z,33.80
2019-02-25T22:38:26.709Z,38.83
2019-02-25T22:41:34.467Z,43.10
2019-02-25T22:44:45.160Z,38.60
2019-02-25T22:47:53.301Z,38.80
2019-02-25T22:51:02.524Z,34.60
2019-02-25T22:54:12.148Z,40.27
2019-02-25T22:57:20.871Z,39.73
2019-02-25T23:00:58.196Z,36.27
2019-02-25T23:04:15.551Z,36.43
2019-02-25T23:07:24.618Z,31.60
2019-02-25T23:10:32.520Z,34.50
2019-02-25T23:13:40.583Z,35.20
2019-02-25T23:16:48.356Z,33.13
2019-02-25T23:19:57.798Z,32.90
2019-02-25T23:23:06.694Z,29.93
2019-02-25T23:26:17.070Z,32.30
2019-02-25T23:29:27.953Z,32.47
2019-02-25T23:32:34.007Z,32.93
2019-02-25T23:35:44.685Z,29.47
2019-02-25T23:38:52.565Z,32.00
2019-02-25T23:42:00.645Z,33.37
2019-02-25T23:45:10.753Z,31.97
2019-02-25T23:48:18.529Z,30.97
2019-02-25T23:51:27.109Z,32.00
2019-02-25T23:54:34.682Z,33.00
2019-02-25T23:57:42.483Z,32.93
